sensor_id;sensor_type;location;lat;lon;timestamp;P1;durP1;ratioP1;P2;durP2;ratioP2
75997;SDS011;64685;48.762;44.822;2024-03-17T00:02:28;13.75;;;3.50;;
75997;SDS011;64685;48.762;44.822;2024-03-17T00:07:41;18.67;;;3.22;;
75997;SDS011;64685;48.762;44.822;2024-03-17T00:12:49;16.45;;;3.28;;
75997;SDS011;64685;48.762;44.822;2024-03-17T00:18:08;10.77;;;3.30;;
75997;SDS011;64685;48.762;44.822;2024-03-17T00:28:25;18.52;;;3.80;;
75997;SDS011;64685;48.762;44.822;2024-03-17T00:34:00;17.60;;;3.42;;
75997;SDS011;64685;48.762;44.822;2024-03-17T00:39:04;17.75;;;3.95;;
75997;SDS011;64685;48.762;44.822;2024-03-17T00:44:13;18.48;;;4.90;;
75997;SDS011;64685;48.762;44.822;2024-03-17T00:49:23;15.52;;;3.15;;
75997;SDS011;64685;48.762;44.822;2024-03-17T00:54:38;17.92;;;4.20;;
75997;SDS011;64685;48.762;44.822;2024-03-17T00:59:45;15.75;;;3.30;;
75997;SDS011;64685;48.762;44.822;2024-03-17T01:04:57;15.70;;;3.88;;
75997;SDS011;64685;48.762;44.822;2024-03-17T01:10:04;13.57;;;3.13;;
75997;SDS011;64685;48.762;44.822;2024-03-17T01:15:18;10.07;;;2.92;;
75997;SDS011;64685;48.762;44.822;2024-03-17T01:20:31;15.93;;;3.75;;
75997;SDS011;64685;48.762;44.822;2024-03-17T01:25:38;10.93;;;3.17;;
75997;SDS011;64685;48.762;44.822;2024-03-17T01:30:50;10.80;;;3.13;;
75997;SDS011;64685;48.762;44.822;2024-03-17T01:36:03;12.07;;;3.17;;
75997;SDS011;64685;48.762;44.822;2024-03-17T01:41:17;8.68;;;2.47;;
75997;SDS011;64685;48.762;44.822;2024-03-17T01:46:30;6.45;;;2.17;;
75997;SDS011;64685;48.762;44.822;2024-03-17T01:51:56;5.50;;;2.28;;
75997;SDS011;64685;48.762;44.822;2024-03-17T01:57:07;5.05;;;1.83;;
75997;SDS011;64685;48.762;44.822;2024-03-17T02:02:17;6.95;;;2.40;;
75997;SDS011;64685;48.762;44.822;2024-03-17T02:07:28;8.32;;;2.50;;
75997;SDS011;64685;48.762;44.822;2024-03-17T02:12:51;8.20;;;2.42;;
75997;SDS011;64685;48.762;44.822;2024-03-17T02:18:11;6.93;;;2.17;;
75997;SDS011;64685;48.762;44.822;2024-03-17T02:23:22;9.82;;;3.10;;
75997;SDS011;64685;48.762;44.822;2024-03-17T02:28:50;4.18;;;1.60;;
75997;SDS011;64685;48.762;44.822;2024-03-17T02:34:31;8.23;;;2.38;;
75997;SDS011;64685;48.762;44.822;2024-03-17T02:39:45;7.25;;;2.33;;
75997;SDS011;64685;48.762;44.822;2024-03-17T02:45:05;8.15;;;2.55;;
75997;SDS011;64685;48.762;44.822;2024-03-17T02:50:11;8.43;;;2.50;;
75997;SDS011;64685;48.762;44.822;2024-03-17T02:55:36;13.10;;;3.55;;
75997;SDS011;64685;48.762;44.822;2024-03-17T03:00:54;7.13;;;2.55;;
75997;SDS011;64685;48.762;44.822;2024-03-17T03:06:18;7.72;;;2.90;;
75997;SDS011;64685;48.762;44.822;2024-03-17T03:11:54;8.82;;;2.58;;
75997;SDS011;64685;48.762;44.822;2024-03-17T03:17:21;14.38;;;4.00;;
75997;SDS011;64685;48.762;44.822;2024-03-17T03:22:38;13.63;;;3.28;;
75997;SDS011;64685;48.762;44.822;2024-03-17T03:28:11;16.70;;;4.13;;
75997;SDS011;64685;48.762;44.822;2024-03-17T03:33:26;10.25;;;3.95;;
75997;SDS011;64685;48.762;44.822;2024-03-17T03:38:52;6.85;;;2.63;;
75997;SDS011;64685;48.762;44.822;2024-03-17T03:44:00;12.77;;;4.47;;
75997;SDS011;64685;48.762;44.822;2024-03-17T03:49:35;11.73;;;2.90;;
75997;SDS011;64685;48.762;44.822;2024-03-17T03:55:21;13.63;;;3.90;;
75997;SDS011;64685;48.762;44.822;2024-03-17T04:00:59;15.63;;;3.63;;
75997;SDS011;64685;48.762;44.822;2024-03-17T04:06:33;6.93;;;2.75;;
75997;SDS011;64685;48.762;44.822;2024-03-17T04:11:56;7.63;;;2.92;;
75997;SDS011;64685;48.762;44.822;2024-03-17T04:17:14;6.82;;;2.85;;
75997;SDS011;64685;48.762;44.822;2024-03-17T04:23:04;7.55;;;2.35;;
75997;SDS011;64685;48.762;44.822;2024-03-17T04:28:17;7.97;;;2.67;;
75997;SDS011;64685;48.762;44.822;2024-03-17T04:33:54;9.30;;;2.90;;
75997;SDS011;64685;48.762;44.822;2024-03-17T04:39:08;9.05;;;3.20;;
75997;SDS011;64685;48.762;44.822;2024-03-17T04:44:55;8.45;;;2.60;;
75997;SDS011;64685;48.762;44.822;2024-03-17T04:50:31;4.60;;;1.65;;
75997;SDS011;64685;48.762;44.822;2024-03-17T04:55:47;7.53;;;2.40;;
75997;SDS011;64685;48.762;44.822;2024-03-17T05:01:12;8.02;;;2.42;;
75997;SDS011;64685;48.762;44.822;2024-03-17T05:06:52;5.32;;;1.52;;
75997;SDS011;64685;48.762;44.822;2024-03-17T05:12:35;5.78;;;2.22;;
75997;SDS011;64685;48.762;44.822;2024-03-17T05:18:25;6.18;;;2.00;;
75997;SDS011;64685;48.762;44.822;2024-03-17T05:24:04;10.40;;;2.80;;
75997;SDS011;64685;48.762;44.822;2024-03-17T05:29:58;7.10;;;2.42;;
75997;SDS011;64685;48.762;44.822;2024-03-17T05:36:22;8.05;;;3.10;;
75997;SDS011;64685;48.762;44.822;2024-03-17T05:42:15;12.65;;;5.22;;
75997;SDS011;64685;48.762;44.822;2024-03-17T05:48:32;7.80;;;3.40;;
75997;SDS011;64685;48.762;44.822;2024-03-17T06:06:53;9.52;;;3.67;;
75997;SDS011;64685;48.762;44.822;2024-03-17T06:13:01;12.32;;;4.30;;
75997;SDS011;64685;48.762;44.822;2024-03-17T06:19:19;10.95;;;4.25;;
75997;SDS011;64685;48.762;44.822;2024-03-17T06:25:36;9.95;;;3.40;;
75997;SDS011;64685;48.762;44.822;2024-03-17T06:31:55;9.32;;;3.90;;
75997;SDS011;64685;48.762;44.822;2024-03-17T06:38:07;7.57;;;3.30;;
75997;SDS011;64685;48.762;44.822;2024-03-17T06:44:23;10.40;;;4.10;;
75997;SDS011;64685;48.762;44.822;2024-03-17T06:50:29;9.25;;;3.15;;
75997;SDS011;64685;48.762;44.822;2024-03-17T06:57:07;7.65;;;3.03;;
75997;SDS011;64685;48.762;44.822;2024-03-17T07:10:10;8.23;;;2.92;;
75997;SDS011;64685;48.762;44.822;2024-03-17T07:16:30;5.20;;;2.00;;
75997;SDS011;64685;48.762;44.822;2024-03-17T07:22:31;7.88;;;2.45;;
75997;SDS011;64685;48.762;44.822;2024-03-17T07:28:29;6.35;;;2.30;;
75997;SDS011;64685;48.762;44.822;2024-03-17T07:34:31;10.10;;;3.55;;
75997;SDS011;64685;48.762;44.822;2024-03-17T07:39:51;8.23;;;3.10;;
75997;SDS011;64685;48.762;44.822;2024-03-17T07:45:39;6.90;;;2.03;;
75997;SDS011;64685;48.762;44.822;2024-03-17T07:51:50;5.97;;;1.95;;
75997;SDS011;64685;48.762;44.822;2024-03-17T07:57:55;6.93;;;2.00;;
75997;SDS011;64685;48.762;44.822;2024-03-17T08:04:11;7.07;;;2.28;;
75997;SDS011;64685;48.762;44.822;2024-03-17T08:09:59;7.25;;;2.50;;
75997;SDS011;64685;48.762;44.822;2024-03-17T08:22:17;5.57;;;2.15;;
75997;SDS011;64685;48.762;44.822;2024-03-17T08:27:44;7.55;;;2.92;;
75997;SDS011;64685;48.762;44.822;2024-03-17T08:33:41;6.57;;;2.00;;
75997;SDS011;64685;48.762;44.822;2024-03-17T08:39:50;7.28;;;2.63;;
75997;SDS011;64685;48.762;44.822;2024-03-17T08:51:57;10.13;;;3.58;;
75997;SDS011;64685;48.762;44.822;2024-03-17T08:58:09;12.70;;;5.13;;
75997;SDS011;64685;48.762;44.822;2024-03-17T09:10:39;11.52;;;5.13;;
75997;SDS011;64685;48.762;44.822;2024-03-17T09:16:23;10.50;;;3.40;;
75997;SDS011;64685;48.762;44.822;2024-03-17T09:22:47;8.32;;;3.22;;
75997;SDS011;64685;48.762;44.822;2024-03-17T09:28:32;8.02;;;2.70;;
75997;SDS011;64685;48.762;44.822;2024-03-17T09:35:09;3.95;;;1.38;;
75997;SDS011;64685;48.762;44.822;2024-03-17T09:48:01;5.10;;;1.30;;
75997;SDS011;64685;48.762;44.822;2024-03-17T09:54:20;3.97;;;1.52;;
75997;SDS011;64685;48.762;44.822;2024-03-17T10:05:38;4.43;;;1.25;;
75997;SDS011;64685;48.762;44.822;2024-03-17T10:11:46;4.00;;;1.20;;
75997;SDS011;64685;48.762;44.822;2024-03-17T10:17:39;2.80;;;0.90;;
75997;SDS011;64685;48.762;44.822;2024-03-17T10:23:32;2.38;;;0.98;;
75997;SDS011;64685;48.762;44.822;2024-03-17T10:29:27;3.28;;;1.23;;
75997;SDS011;64685;48.762;44.822;2024-03-17T10:34:53;4.43;;;1.45;;
75997;SDS011;64685;48.762;44.822;2024-03-17T10:40:49;2.78;;;0.80;;
75997;SDS011;64685;48.762;44.822;2024-03-17T10:46:27;3.90;;;1.17;;
75997;SDS011;64685;48.762;44.822;2024-03-17T10:51:55;4.28;;;1.13;;
75997;SDS011;64685;48.762;44.822;2024-03-17T10:57:46;5.07;;;1.33;;
75997;SDS011;64685;48.762;44.822;2024-03-17T11:03:14;5.55;;;1.75;;
75997;SDS011;64685;48.762;44.822;2024-03-17T11:08:43;2.97;;;0.95;;
75997;SDS011;64685;48.762;44.822;2024-03-17T11:14:23;3.10;;;0.80;;
75997;SDS011;64685;48.762;44.822;2024-03-17T11:20:20;3.63;;;1.10;;
75997;SDS011;64685;48.762;44.822;2024-03-17T11:26:04;2.10;;;0.63;;
75997;SDS011;64685;48.762;44.822;2024-03-17T11:32:24;5.28;;;1.63;;
75997;SDS011;64685;48.762;44.822;2024-03-17T11:44:43;14.88;;;6.63;;
75997;SDS011;64685;48.762;44.822;2024-03-17T11:51:02;12.25;;;7.90;;
75997;SDS011;64685;48.762;44.822;2024-03-17T12:03:39;4.40;;;1.52;;
75997;SDS011;64685;48.762;44.822;2024-03-17T12:09:30;6.65;;;2.55;;
75997;SDS011;64685;48.762;44.822;2024-03-17T12:15:23;8.50;;;3.20;;
75997;SDS011;64685;48.762;44.822;2024-03-17T12:28:15;5.50;;;2.00;;
75997;SDS011;64685;48.762;44.822;2024-03-17T12:40:37;6.97;;;2.22;;
75997;SDS011;64685;48.762;44.822;2024-03-17T12:46:29;5.90;;;2.53;;
75997;SDS011;64685;48.762;44.822;2024-03-17T12:52:46;15.63;;;6.47;;
75997;SDS011;64685;48.762;44.822;2024-03-17T12:58:50;10.63;;;3.50;;
75997;SDS011;64685;48.762;44.822;2024-03-17T13:04:34;5.10;;;1.52;;
75997;SDS011;64685;48.762;44.822;2024-03-17T13:16:45;3.67;;;1.58;;
75997;SDS011;64685;48.762;44.822;2024-03-17T13:23:04;10.32;;;3.45;;
75997;SDS011;64685;48.762;44.822;2024-03-17T13:29:18;11.48;;;4.78;;
75997;SDS011;64685;48.762;44.822;2024-03-17T13:35:34;4.38;;;1.50;;
75997;SDS011;64685;48.762;44.822;2024-03-17T13:42:09;4.35;;;1.50;;
75997;SDS011;64685;48.762;44.822;2024-03-17T13:48:44;5.25;;;1.60;;
75997;SDS011;64685;48.762;44.822;2024-03-17T14:08:38;6.63;;;2.53;;
75997;SDS011;64685;48.762;44.822;2024-03-17T14:22:19;7.78;;;2.47;;
75997;SDS011;64685;48.762;44.822;2024-03-17T14:35:37;9.15;;;3.10;;
75997;SDS011;64685;48.762;44.822;2024-03-17T14:48:58;8.93;;;2.53;;
75997;SDS011;64685;48.762;44.822;2024-03-17T15:02:43;9.23;;;3.00;;
75997;SDS011;64685;48.762;44.822;2024-03-17T17:41:32;10.63;;;4.50;;
75997;SDS011;64685;48.762;44.822;2024-03-17T20:02:10;16.83;;;4.28;;
75997;SDS011;64685;48.762;44.822;2024-03-17T20:23:04;12.50;;;5.47;;
75997;SDS011;64685;48.762;44.822;2024-03-17T20:57:24;16.48;;;6.53;;
75997;SDS011;64685;48.762;44.822;2024-03-17T21:04:25;14.32;;;6.45;;
75997;SDS011;64685;48.762;44.822;2024-03-17T21:10:47;15.82;;;6.53;;
75997;SDS011;64685;48.762;44.822;2024-03-17T21:17:48;14.10;;;7.38;;
